sensor_id;sensor_type;location;lat;lon;timestamp;P1;durP1;ratioP1;P2;durP2;ratioP2
49340;SDS011;35209;51.050;13.678;2022-08-19T00:00:34;16.02;;;14.93;;
49340;SDS011;35209;51.050;13.678;2022-08-19T00:05:39;17.50;;;16.30;;
49340;SDS011;35209;51.050;13.678;2022-08-19T00:10:43;15.65;;;14.68;;
49340;SDS011;35209;51.050;13.678;2022-08-19T00:15:47;15.88;;;14.77;;
49340;SDS011;35209;51.050;13.678;2022-08-19T00:20:48;16.27;;;15.20;;
49340;SDS011;35209;51.050;13.678;2022-08-19T00:25:50;16.52;;;15.63;;
49340;SDS011;35209;51.050;13.678;2022-08-19T00:30:52;17.45;;;16.10;;
49340;SDS011;35209;51.050;13.678;2022-08-19T00:35:54;16.08;;;14.82;;
49340;SDS011;35209;51.050;13.678;2022-08-19T00:40:56;16.15;;;15.25;;
49340;SDS011;35209;51.050;13.678;2022-08-19T00:45:58;16.23;;;15.23;;
49340;SDS011;35209;51.050;13.678;2022-08-19T00:51:00;17.27;;;16.17;;
49340;SDS011;35209;51.050;13.678;2022-08-19T00:56:02;17.48;;;16.27;;
49340;SDS011;35209;51.050;13.678;2022-08-19T01:01:07;18.75;;;17.65;;
49340;SDS011;35209;51.050;13.678;2022-08-19T01:06:12;19.17;;;17.88;;
49340;SDS011;35209;51.050;13.678;2022-08-19T01:11:20;19.30;;;18.15;;
49340;SDS011;35209;51.050;13.678;2022-08-19T01:16:23;20.80;;;19.30;;
49340;SDS011;35209;51.050;13.678;2022-08-19T01:21:29;20.75;;;19.55;;
49340;SDS011;35209;51.050;13.678;2022-08-19T01:26:40;19.40;;;18.30;;
49340;SDS011;35209;51.050;13.678;2022-08-19T01:31:44;18.40;;;17.30;;
49340;SDS011;35209;51.050;13.678;2022-08-19T01:36:46;19.70;;;18.30;;
49340;SDS011;35209;51.050;13.678;2022-08-19T01:41:48;19.35;;;18.25;;
49340;SDS011;35209;51.050;13.678;2022-08-19T01:46:51;17.73;;;16.67;;
49340;SDS011;35209;51.050;13.678;2022-08-19T01:51:53;19.60;;;18.42;;
49340;SDS011;35209;51.050;13.678;2022-08-19T01:56:56;18.25;;;17.17;;
49340;SDS011;35209;51.050;13.678;2022-08-19T02:02:03;19.25;;;18.15;;
49340;SDS011;35209;51.050;13.678;2022-08-19T02:07:09;18.55;;;17.45;;
49340;SDS011;35209;51.050;13.678;2022-08-19T02:12:11;19.38;;;18.05;;
49340;SDS011;35209;51.050;13.678;2022-08-19T02:17:13;17.63;;;16.42;;
49340;SDS011;35209;51.050;13.678;2022-08-19T02:22:14;17.70;;;16.65;;
49340;SDS011;35209;51.050;13.678;2022-08-19T02:27:16;17.83;;;16.80;;
49340;SDS011;35209;51.050;13.678;2022-08-19T02:32:18;18.90;;;17.73;;
49340;SDS011;35209;51.050;13.678;2022-08-19T02:37:21;18.67;;;17.55;;
49340;SDS011;35209;51.050;13.678;2022-08-19T02:42:41;17.98;;;16.95;;
49340;SDS011;35209;51.050;13.678;2022-08-19T02:47:44;19.02;;;17.60;;
49340;SDS011;35209;51.050;13.678;2022-08-19T02:52:45;17.38;;;16.33;;
49340;SDS011;35209;51.050;13.678;2022-08-19T02:57:47;18.63;;;17.42;;
49340;SDS011;35209;51.050;13.678;2022-08-19T03:02:49;18.25;;;17.05;;
49340;SDS011;35209;51.050;13.678;2022-08-19T03:07:51;19.67;;;18.45;;
49340;SDS011;35209;51.050;13.678;2022-08-19T03:12:52;18.90;;;17.70;;
49340;SDS011;35209;51.050;13.678;2022-08-19T03:17:54;20.38;;;19.17;;
49340;SDS011;35209;51.050;13.678;2022-08-19T03:22:57;21.15;;;19.63;;
49340;SDS011;35209;51.050;13.678;2022-08-19T03:27:59;18.88;;;17.77;;
49340;SDS011;35209;51.050;13.678;2022-08-19T03:33:01;21.63;;;20.30;;
49340;SDS011;35209;51.050;13.678;2022-08-19T03:38:05;20.08;;;18.77;;
49340;SDS011;35209;51.050;13.678;2022-08-19T03:43:07;19.10;;;17.90;;
49340;SDS011;35209;51.050;13.678;2022-08-19T03:48:09;19.40;;;18.30;;
49340;SDS011;35209;51.050;13.678;2022-08-19T03:53:11;20.05;;;18.70;;
49340;SDS011;35209;51.050;13.678;2022-08-19T03:58:12;20.05;;;18.58;;
49340;SDS011;35209;51.050;13.678;2022-08-19T04:03:14;19.58;;;18.33;;
49340;SDS011;35209;51.050;13.678;2022-08-19T04:08:16;17.65;;;16.35;;
49340;SDS011;35209;51.050;13.678;2022-08-19T04:13:23;19.50;;;18.42;;
49340;SDS011;35209;51.050;13.678;2022-08-19T04:18:25;18.00;;;16.83;;
49340;SDS011;35209;51.050;13.678;2022-08-19T04:23:27;19.77;;;18.60;;
49340;SDS011;35209;51.050;13.678;2022-08-19T04:28:32;20.00;;;18.15;;
49340;SDS011;35209;51.050;13.678;2022-08-19T04:33:34;18.45;;;17.30;;
49340;SDS011;35209;51.050;13.678;2022-08-19T04:38:35;18.52;;;17.42;;
49340;SDS011;35209;51.050;13.678;2022-08-19T04:43:37;18.65;;;17.65;;
49340;SDS011;35209;51.050;13.678;2022-08-19T04:48:40;18.23;;;17.15;;
49340;SDS011;35209;51.050;13.678;2022-08-19T04:53:49;19.55;;;18.25;;
49340;SDS011;35209;51.050;13.678;2022-08-19T04:58:53;18.30;;;17.20;;
49340;SDS011;35209;51.050;13.678;2022-08-19T05:03:55;19.13;;;18.13;;
49340;SDS011;35209;51.050;13.678;2022-08-19T05:08:57;20.42;;;19.23;;
49340;SDS011;35209;51.050;13.678;2022-08-19T05:14:00;19.85;;;18.58;;
49340;SDS011;35209;51.050;13.678;2022-08-19T05:19:02;21.40;;;20.05;;
49340;SDS011;35209;51.050;13.678;2022-08-19T05:24:23;22.05;;;20.60;;
49340;SDS011;35209;51.050;13.678;2022-08-19T05:29:25;20.95;;;19.63;;
49340;SDS011;35209;51.050;13.678;2022-08-19T05:34:37;20.92;;;19.70;;
49340;SDS011;35209;51.050;13.678;2022-08-19T05:39:39;21.10;;;19.88;;
49340;SDS011;35209;51.050;13.678;2022-08-19T05:44:42;20.10;;;18.88;;
49340;SDS011;35209;51.050;13.678;2022-08-19T05:49:48;17.63;;;16.65;;
49340;SDS011;35209;51.050;13.678;2022-08-19T05:54:51;16.13;;;15.13;;
49340;SDS011;35209;51.050;13.678;2022-08-19T05:59:56;15.90;;;14.90;;
49340;SDS011;35209;51.050;13.678;2022-08-19T06:04:59;13.23;;;12.32;;
49340;SDS011;35209;51.050;13.678;2022-08-19T06:10:01;11.80;;;11.05;;
49340;SDS011;35209;51.050;13.678;2022-08-19T06:15:06;10.77;;;9.98;;
49340;SDS011;35209;51.050;13.678;2022-08-19T06:20:12;11.23;;;10.52;;
49340;SDS011;35209;51.050;13.678;2022-08-19T06:25:16;11.50;;;10.63;;
49340;SDS011;35209;51.050;13.678;2022-08-19T06:30:18;12.18;;;11.32;;
49340;SDS011;35209;51.050;13.678;2022-08-19T06:35:20;11.30;;;10.55;;
49340;SDS011;35209;51.050;13.678;2022-08-19T06:40:21;11.52;;;10.73;;
49340;SDS011;35209;51.050;13.678;2022-08-19T06:45:23;43.83;;;12.50;;
49340;SDS011;35209;51.050;13.678;2022-08-19T06:50:36;12.35;;;11.65;;
49340;SDS011;35209;51.050;13.678;2022-08-19T06:55:41;14.00;;;12.02;;
49340;SDS011;35209;51.050;13.678;2022-08-19T07:00:43;13.60;;;12.73;;
49340;SDS011;35209;51.050;13.678;2022-08-19T07:05:45;15.45;;;14.45;;
49340;SDS011;35209;51.050;13.678;2022-08-19T07:10:47;16.85;;;15.85;;
49340;SDS011;35209;51.050;13.678;2022-08-19T07:15:50;16.45;;;15.35;;
49340;SDS011;35209;51.050;13.678;2022-08-19T07:21:01;16.98;;;15.88;;
49340;SDS011;35209;51.050;13.678;2022-08-19T07:31:19;17.70;;;16.70;;
49340;SDS011;35209;51.050;13.678;2022-08-19T07:36:25;19.42;;;18.23;;
49340;SDS011;35209;51.050;13.678;2022-08-19T07:41:34;18.10;;;17.00;;
49340;SDS011;35209;51.050;13.678;2022-08-19T07:46:39;18.70;;;17.63;;
49340;SDS011;35209;51.050;13.678;2022-08-19T07:51:43;19.02;;;17.73;;
49340;SDS011;35209;51.050;13.678;2022-08-19T07:56:49;19.65;;;18.45;;
49340;SDS011;35209;51.050;13.678;2022-08-19T08:01:52;19.95;;;18.75;;
49340;SDS011;35209;51.050;13.678;2022-08-19T08:06:55;19.92;;;18.83;;
49340;SDS011;35209;51.050;13.678;2022-08-19T08:12:16;21.00;;;19.33;;
49340;SDS011;35209;51.050;13.678;2022-08-19T08:17:34;21.13;;;19.55;;
49340;SDS011;35209;51.050;13.678;2022-08-19T08:22:51;19.23;;;18.02;;
49340;SDS011;35209;51.050;13.678;2022-08-19T08:28:12;17.80;;;16.85;;
49340;SDS011;35209;51.050;13.678;2022-08-19T08:33:18;16.30;;;15.30;;
49340;SDS011;35209;51.050;13.678;2022-08-19T08:38:35;14.73;;;13.80;;
49340;SDS011;35209;51.050;13.678;2022-08-19T08:43:44;13.38;;;12.60;;
49340;SDS011;35209;51.050;13.678;2022-08-19T08:54:00;11.75;;;11.05;;
49340;SDS011;35209;51.050;13.678;2022-08-19T08:59:07;12.37;;;11.77;;
49340;SDS011;35209;51.050;13.678;2022-08-19T09:04:18;12.75;;;12.05;;
49340;SDS011;35209;51.050;13.678;2022-08-19T09:09:23;14.15;;;13.35;;
49340;SDS011;35209;51.050;13.678;2022-08-19T09:20:17;14.38;;;13.57;;
49340;SDS011;35209;51.050;13.678;2022-08-19T09:25:21;13.82;;;12.98;;
49340;SDS011;35209;51.050;13.678;2022-08-19T09:30:28;15.82;;;14.93;;
49340;SDS011;35209;51.050;13.678;2022-08-19T09:35:32;14.55;;;13.70;;
49340;SDS011;35209;51.050;13.678;2022-08-19T09:40:53;14.23;;;13.32;;
49340;SDS011;35209;51.050;13.678;2022-08-19T09:45:56;15.85;;;14.75;;
49340;SDS011;35209;51.050;13.678;2022-08-19T09:51:02;14.77;;;13.93;;
49340;SDS011;35209;51.050;13.678;2022-08-19T09:56:12;15.82;;;14.90;;
49340;SDS011;35209;51.050;13.678;2022-08-19T10:01:15;13.57;;;12.70;;
49340;SDS011;35209;51.050;13.678;2022-08-19T10:06:28;12.23;;;11.50;;
49340;SDS011;35209;51.050;13.678;2022-08-19T10:11:47;10.20;;;9.55;;
49340;SDS011;35209;51.050;13.678;2022-08-19T10:16:55;9.20;;;8.70;;
49340;SDS011;35209;51.050;13.678;2022-08-19T10:22:01;8.57;;;8.07;;
49340;SDS011;35209;51.050;13.678;2022-08-19T10:27:04;7.50;;;6.90;;
49340;SDS011;35209;51.050;13.678;2022-08-19T10:32:09;7.60;;;7.10;;
49340;SDS011;35209;51.050;13.678;2022-08-19T10:37:11;6.32;;;6.03;;
49340;SDS011;35209;51.050;13.678;2022-08-19T10:42:18;5.30;;;5.00;;
49340;SDS011;35209;51.050;13.678;2022-08-19T10:47:20;4.97;;;4.68;;
49340;SDS011;35209;51.050;13.678;2022-08-19T10:57:39;4.75;;;4.45;;
49340;SDS011;35209;51.050;13.678;2022-08-19T11:03:02;5.35;;;5.05;;
49340;SDS011;35209;51.050;13.678;2022-08-19T11:08:03;7.50;;;6.93;;
49340;SDS011;35209;51.050;13.678;2022-08-19T11:13:24;9.50;;;8.20;;
49340;SDS011;35209;51.050;13.678;2022-08-19T11:18:26;8.60;;;8.20;;
49340;SDS011;35209;51.050;13.678;2022-08-19T11:23:28;9.13;;;8.48;;
49340;SDS011;35209;51.050;13.678;2022-08-19T11:28:29;9.40;;;8.90;;
49340;SDS011;35209;51.050;13.678;2022-08-19T11:33:31;10.90;;;10.20;;
49340;SDS011;35209;51.050;13.678;2022-08-19T11:38:34;12.07;;;11.18;;
49340;SDS011;35209;51.050;13.678;2022-08-19T11:43:36;11.50;;;10.80;;
49340;SDS011;35209;51.050;13.678;2022-08-19T11:48:38;13.13;;;12.13;;
49340;SDS011;35209;51.050;13.678;2022-08-19T11:53:40;11.95;;;11.25;;
49340;SDS011;35209;51.050;13.678;2022-08-19T11:58:43;14.60;;;13.70;;
49340;SDS011;35209;51.050;13.678;2022-08-19T12:03:45;15.38;;;14.45;;
49340;SDS011;35209;51.050;13.678;2022-08-19T12:08:49;15.73;;;14.73;;
49340;SDS011;35209;51.050;13.678;2022-08-19T12:13:51;16.20;;;15.30;;
49340;SDS011;35209;51.050;13.678;2022-08-19T12:18:53;18.38;;;17.27;;
49340;SDS011;35209;51.050;13.678;2022-08-19T12:23:57;17.13;;;16.13;;
49340;SDS011;35209;51.050;13.678;2022-08-19T12:29:00;21.60;;;19.60;;
49340;SDS011;35209;51.050;13.678;2022-08-19T12:34:01;22.30;;;20.73;;
49340;SDS011;35209;51.050;13.678;2022-08-19T12:39:03;20.58;;;19.17;;
49340;SDS011;35209;51.050;13.678;2022-08-19T12:44:05;19.60;;;17.98;;
49340;SDS011;35209;51.050;13.678;2022-08-19T12:49:09;18.65;;;17.45;;
49340;SDS011;35209;51.050;13.678;2022-08-19T12:54:31;25.08;;;23.50;;
49340;SDS011;35209;51.050;13.678;2022-08-19T12:59:36;23.80;;;22.38;;
49340;SDS011;35209;51.050;13.678;2022-08-19T13:04:39;22.60;;;21.20;;
49340;SDS011;35209;51.050;13.678;2022-08-19T13:09:41;23.88;;;22.30;;
49340;SDS011;35209;51.050;13.678;2022-08-19T13:14:43;19.05;;;17.95;;
49340;SDS011;35209;51.050;13.678;2022-08-19T13:19:51;20.95;;;19.75;;
49340;SDS011;35209;51.050;13.678;2022-08-19T13:24:53;24.42;;;22.95;;
49340;SDS011;35209;51.050;13.678;2022-08-19T13:29:55;21.88;;;20.42;;
49340;SDS011;35209;51.050;13.678;2022-08-19T13:35:15;24.40;;;22.70;;
49340;SDS011;35209;51.050;13.678;2022-08-19T13:40:20;28.58;;;26.77;;
49340;SDS011;35209;51.050;13.678;2022-08-19T13:45:25;31.42;;;29.40;;
49340;SDS011;35209;51.050;13.678;2022-08-19T13:50:29;30.38;;;28.20;;
49340;SDS011;35209;51.050;13.678;2022-08-19T13:55:34;28.80;;;26.58;;
49340;SDS011;35209;51.050;13.678;2022-08-19T14:00:40;29.13;;;27.20;;
49340;SDS011;35209;51.050;13.678;2022-08-19T14:05:44;27.83;;;25.77;;
49340;SDS011;35209;51.050;13.678;2022-08-19T14:10:47;27.52;;;25.83;;
49340;SDS011;35209;51.050;13.678;2022-08-19T14:15:50;31.02;;;28.60;;
49340;SDS011;35209;51.050;13.678;2022-08-19T14:20:52;30.92;;;28.75;;
49340;SDS011;35209;51.050;13.678;2022-08-19T14:26:02;32.40;;;29.88;;
49340;SDS011;35209;51.050;13.678;2022-08-19T14:31:14;31.83;;;29.80;;
49340;SDS011;35209;51.050;13.678;2022-08-19T14:36:20;35.47;;;32.30;;
49340;SDS011;35209;51.050;13.678;2022-08-19T14:41:23;34.00;;;31.48;;
49340;SDS011;35209;51.050;13.678;2022-08-19T14:46:25;34.30;;;31.85;;
49340;SDS011;35209;51.050;13.678;2022-08-19T14:51:30;35.28;;;32.63;;
49340;SDS011;35209;51.050;13.678;2022-08-19T14:56:32;34.63;;;31.73;;
49340;SDS011;35209;51.050;13.678;2022-08-19T15:01:34;32.33;;;29.83;;
49340;SDS011;35209;51.050;13.678;2022-08-19T15:06:36;25.50;;;23.90;;
49340;SDS011;35209;51.050;13.678;2022-08-19T15:11:38;31.05;;;28.85;;
49340;SDS011;35209;51.050;13.678;2022-08-19T15:16:39;31.83;;;29.52;;
49340;SDS011;35209;51.050;13.678;2022-08-19T15:21:42;29.90;;;27.80;;
49340;SDS011;35209;51.050;13.678;2022-08-19T15:26:44;31.08;;;28.95;;
49340;SDS011;35209;51.050;13.678;2022-08-19T15:31:46;34.15;;;31.27;;
49340;SDS011;35209;51.050;13.678;2022-08-19T15:36:49;33.78;;;31.20;;
49340;SDS011;35209;51.050;13.678;2022-08-19T15:41:51;32.53;;;30.02;;
49340;SDS011;35209;51.050;13.678;2022-08-19T15:46:53;31.90;;;29.52;;
49340;SDS011;35209;51.050;13.678;2022-08-19T15:51:54;29.80;;;27.73;;
49340;SDS011;35209;51.050;13.678;2022-08-19T15:56:58;30.70;;;28.27;;
49340;SDS011;35209;51.050;13.678;2022-08-19T16:02:19;28.70;;;26.88;;
49340;SDS011;35209;51.050;13.678;2022-08-19T16:07:40;25.42;;;23.63;;
49340;SDS011;35209;51.050;13.678;2022-08-19T16:12:42;26.05;;;24.45;;
49340;SDS011;35209;51.050;13.678;2022-08-19T16:17:44;23.63;;;22.23;;
49340;SDS011;35209;51.050;13.678;2022-08-19T16:22:57;24.77;;;23.27;;
49340;SDS011;35209;51.050;13.678;2022-08-19T16:27:59;22.65;;;20.75;;
49340;SDS011;35209;51.050;13.678;2022-08-19T16:33:08;22.42;;;21.08;;
49340;SDS011;35209;51.050;13.678;2022-08-19T16:38:10;22.85;;;21.45;;
49340;SDS011;35209;51.050;13.678;2022-08-19T16:43:12;23.60;;;22.10;;
49340;SDS011;35209;51.050;13.678;2022-08-19T16:48:14;23.15;;;21.80;;
49340;SDS011;35209;51.050;13.678;2022-08-19T16:53:20;23.15;;;21.75;;
49340;SDS011;35209;51.050;13.678;2022-08-19T16:58:24;22.55;;;21.05;;
49340;SDS011;35209;51.050;13.678;2022-08-19T17:03:28;24.10;;;22.47;;
49340;SDS011;35209;51.050;13.678;2022-08-19T17:08:37;24.60;;;22.52;;
49340;SDS011;35209;51.050;13.678;2022-08-19T17:13:39;24.23;;;22.50;;
49340;SDS011;35209;51.050;13.678;2022-08-19T17:18:43;20.23;;;19.02;;
49340;SDS011;35209;51.050;13.678;2022-08-19T17:23:45;21.15;;;19.90;;
49340;SDS011;35209;51.050;13.678;2022-08-19T17:28:47;22.75;;;21.23;;
49340;SDS011;35209;51.050;13.678;2022-08-19T17:33:51;23.38;;;21.95;;
49340;SDS011;35209;51.050;13.678;2022-08-19T17:38:56;19.58;;;18.27;;
49340;SDS011;35209;51.050;13.678;2022-08-19T17:44:01;18.90;;;17.70;;
49340;SDS011;35209;51.050;13.678;2022-08-19T17:49:03;19.95;;;18.75;;
49340;SDS011;35209;51.050;13.678;2022-08-19T17:54:05;22.15;;;20.85;;
49340;SDS011;35209;51.050;13.678;2022-08-19T17:59:12;22.08;;;20.70;;
49340;SDS011;35209;51.050;13.678;2022-08-19T18:04:15;24.42;;;22.65;;
49340;SDS011;35209;51.050;13.678;2022-08-19T18:09:17;22.70;;;21.20;;
49340;SDS011;35209;51.050;13.678;2022-08-19T18:14:22;19.27;;;17.88;;
49340;SDS011;35209;51.050;13.678;2022-08-19T18:19:34;23.02;;;21.08;;
49340;SDS011;35209;51.050;13.678;2022-08-19T18:24:42;22.55;;;21.10;;
49340;SDS011;35209;51.050;13.678;2022-08-19T18:29:46;22.00;;;20.50;;
49340;SDS011;35209;51.050;13.678;2022-08-19T18:34:48;23.02;;;21.52;;
49340;SDS011;35209;51.050;13.678;2022-08-19T18:39:50;22.17;;;20.67;;
49340;SDS011;35209;51.050;13.678;2022-08-19T18:45:10;23.63;;;21.90;;
49340;SDS011;35209;51.050;13.678;2022-08-19T18:50:31;22.52;;;20.77;;
49340;SDS011;35209;51.050;13.678;2022-08-19T18:55:33;25.85;;;24.10;;
49340;SDS011;35209;51.050;13.678;2022-08-19T19:00:35;25.73;;;23.98;;
49340;SDS011;35209;51.050;13.678;2022-08-19T19:05:37;27.20;;;25.60;;
49340;SDS011;35209;51.050;13.678;2022-08-19T19:10:42;33.07;;;30.93;;
49340;SDS011;35209;51.050;13.678;2022-08-19T19:15:45;33.58;;;31.15;;
49340;SDS011;35209;51.050;13.678;2022-08-19T19:20:47;34.20;;;31.45;;
49340;SDS011;35209;51.050;13.678;2022-08-19T19:25:49;31.80;;;29.25;;
49340;SDS011;35209;51.050;13.678;2022-08-19T19:30:53;32.88;;;30.40;;
49340;SDS011;35209;51.050;13.678;2022-08-19T19:36:02;30.65;;;28.58;;
49340;SDS011;35209;51.050;13.678;2022-08-19T19:41:08;28.60;;;26.48;;
49340;SDS011;35209;51.050;13.678;2022-08-19T19:46:10;27.60;;;25.80;;
49340;SDS011;35209;51.050;13.678;2022-08-19T19:51:12;30.38;;;27.83;;
49340;SDS011;35209;51.050;13.678;2022-08-19T19:56:15;26.52;;;24.80;;
49340;SDS011;35209;51.050;13.678;2022-08-19T20:01:18;30.42;;;28.20;;
49340;SDS011;35209;51.050;13.678;2022-08-19T20:06:24;27.35;;;25.30;;
49340;SDS011;35209;51.050;13.678;2022-08-19T20:11:31;27.23;;;25.42;;
49340;SDS011;35209;51.050;13.678;2022-08-19T20:16:34;29.87;;;27.67;;
49340;SDS011;35209;51.050;13.678;2022-08-19T20:21:38;29.20;;;26.67;;
49340;SDS011;35209;51.050;13.678;2022-08-19T20:26:48;25.60;;;23.85;;
49340;SDS011;35209;51.050;13.678;2022-08-19T20:31:54;25.08;;;22.95;;
49340;SDS011;35209;51.050;13.678;2022-08-19T20:36:59;26.10;;;24.20;;
49340;SDS011;35209;51.050;13.678;2022-08-19T20:42:00;24.38;;;22.77;;
49340;SDS011;35209;51.050;13.678;2022-08-19T20:47:02;26.00;;;24.10;;
49340;SDS011;35209;51.050;13.678;2022-08-19T20:52:04;25.92;;;23.90;;
49340;SDS011;35209;51.050;13.678;2022-08-19T20:57:06;21.48;;;20.08;;
49340;SDS011;35209;51.050;13.678;2022-08-19T21:02:09;23.98;;;22.48;;
49340;SDS011;35209;51.050;13.678;2022-08-19T21:07:11;22.40;;;21.08;;
49340;SDS011;35209;51.050;13.678;2022-08-19T21:12:13;24.27;;;22.65;;
49340;SDS011;35209;51.050;13.678;2022-08-19T21:17:15;23.38;;;21.88;;
49340;SDS011;35209;51.050;13.678;2022-08-19T21:22:16;24.63;;;22.92;;
49340;SDS011;35209;51.050;13.678;2022-08-19T21:27:18;25.60;;;23.60;;
49340;SDS011;35209;51.050;13.678;2022-08-19T21:32:20;23.98;;;22.27;;
49340;SDS011;35209;51.050;13.678;2022-08-19T21:37:22;21.15;;;19.55;;
49340;SDS011;35209;51.050;13.678;2022-08-19T21:42:26;22.48;;;20.70;;
49340;SDS011;35209;51.050;13.678;2022-08-19T21:47:28;23.08;;;21.67;;
49340;SDS011;35209;51.050;13.678;2022-08-19T21:52:29;23.67;;;22.13;;
49340;SDS011;35209;51.050;13.678;2022-08-19T21:57:31;23.73;;;21.90;;
49340;SDS011;35209;51.050;13.678;2022-08-19T22:02:33;25.50;;;23.60;;
49340;SDS011;35209;51.050;13.678;2022-08-19T22:07:34;24.70;;;22.85;;
49340;SDS011;35209;51.050;13.678;2022-08-19T22:12:37;24.23;;;22.42;;
49340;SDS011;35209;51.050;13.678;2022-08-19T22:17:52;25.25;;;23.42;;
49340;SDS011;35209;51.050;13.678;2022-08-19T22:22:56;24.00;;;22.42;;
49340;SDS011;35209;51.050;13.678;2022-08-19T22:28:00;24.92;;;22.85;;
49340;SDS011;35209;51.050;13.678;2022-08-19T22:33:05;24.17;;;22.67;;
49340;SDS011;35209;51.050;13.678;2022-08-19T22:38:09;23.35;;;21.85;;
49340;SDS011;35209;51.050;13.678;2022-08-19T22:43:13;27.55;;;25.08;;
49340;SDS011;35209;51.050;13.678;2022-08-19T22:48:21;25.42;;;23.38;;
49340;SDS011;35209;51.050;13.678;2022-08-19T22:53:25;25.23;;;23.47;;
49340;SDS011;35209;51.050;13.678;2022-08-19T22:58:28;25.80;;;23.40;;
49340;SDS011;35209;51.050;13.678;2022-08-19T23:03:30;25.25;;;23.33;;
49340;SDS011;35209;51.050;13.678;2022-08-19T23:08:31;26.27;;;24.25;;
49340;SDS011;35209;51.050;13.678;2022-08-19T23:13:34;27.27;;;25.15;;
49340;SDS011;35209;51.050;13.678;2022-08-19T23:18:35;26.83;;;24.80;;
49340;SDS011;35209;51.050;13.678;2022-08-19T23:23:38;26.45;;;24.75;;
49340;SDS011;35209;51.050;13.678;2022-08-19T23:28:40;24.58;;;22.92;;
49340;SDS011;35209;51.050;13.678;2022-08-19T23:34:00;25.92;;;24.20;;
49340;SDS011;35209;51.050;13.678;2022-08-19T23:39:02;26.52;;;24.52;;
49340;SDS011;35209;51.050;13.678;2022-08-19T23:44:04;25.88;;;24.00;;
49340;SDS011;35209;51.050;13.678;2022-08-19T23:49:14;27.02;;;25.05;;
49340;SDS011;35209;51.050;13.678;2022-08-19T23:54:16;27.38;;;25.38;;
49340;SDS011;35209;51.050;13.678;2022-08-19T23:59:18;28.90;;;26.80;;
